Time;durP1;ratioP1;P1;durP2;ratioP2;P2;SDS_P1;SDS_P2;PMS_P1;PMS_P2;Temp;Humidity;BMP_temperature;BMP_pressure;BME280_temperature;BME280_humidity;BME280_pressure;Samples;Min_cycle;Max_cycle;Signal;HPM_P1;HPM_P2
2023/04/05 00:00:53;;;;;;;8.98;6.22;;;2.20;99.90;;;;;;5054589;28;20363;-52
2023/04/05 00:03:19;;;;;;;10.85;6.90;;;2.10;99.90;;;;;;5054754;28;20040;-52
2023/04/05 00:05:48;;;;;;;9.70;5.95;;;2.10;99.90;;;;;;5054926;28;20048;-53
2023/04/05 00:08:22;;;;;;;8.45;5.70;;;2.00;1.00;;;;;;5055075;28;20407;-51
2023/04/05 00:10:48;;;;;;;10.98;7.18;;;2.00;1.00;;;;;;5053977;28;20063;-54
2023/04/05 00:13:13;;;;;;;11.05;6.57;;;2.00;1.00;;;;;;5053593;28;20122;-52
2023/04/05 00:15:39;;;;;;;9.32;6.30;;;2.10;1.00;;;;;;5054024;28;20044;-49
2023/04/05 00:18:05;;;;;;;9.23;7.10;;;2.00;1.00;;;;;;5054324;28;20388;-51
2023/04/05 00:20:32;;;;;;;7.10;5.72;;;2.00;99.90;;;;;;5053562;28;20025;-54
2023/04/05 00:22:58;;;;;;;8.82;5.78;;;2.00;99.90;;;;;;5053552;28;20040;-51
2023/04/05 00:25:24;;;;;;;10.38;6.70;;;2.00;99.90;;;;;;5053298;28;20104;-51
2023/04/05 00:27:50;;;;;;;12.18;6.47;;;1.90;99.90;;;;;;5054259;28;20528;-54
2023/04/05 00:30:19;;;;;;;18.10;6.65;;;1.80;99.90;;;;;;5052859;28;20530;-51
2023/04/05 00:32:49;;;;;;;10.13;6.70;;;1.80;99.90;;;;;;5053032;28;20652;-52
2023/04/05 00:35:15;;;;;;;8.50;6.50;;;1.80;99.90;;;;;;5054108;28;20048;-51
2023/04/05 00:37:40;;;;;;;13.43;6.50;;;1.80;99.90;;;;;;5054236;28;20542;-48
2023/04/05 00:40:07;;;;;;;8.27;6.15;;;1.70;99.90;;;;;;5053881;28;20021;-49
2023/04/05 00:42:33;;;;;;;7.85;6.18;;;1.60;99.90;;;;;;5052859;28;20104;-55
2023/04/05 00:44:59;;;;;;;10.23;6.35;;;1.60;1.00;;;;;;5053900;28;20409;-51
2023/04/05 00:47:26;;;;;;;10.68;7.35;;;1.60;1.00;;;;;;5053874;28;20021;-53
2023/04/05 00:49:52;;;;;;;16.17;7.45;;;1.60;1.00;;;;;;5053664;28;20045;-52
2023/04/05 00:52:22;;;;;;;12.40;6.85;;;1.60;1.00;;;;;;5053899;28;20031;-49
2023/04/05 00:54:50;;;;;;;9.65;6.07;;;1.60;87.80;;;;;;5053773;28;20361;-53
2023/04/05 00:57:16;;;;;;;9.30;6.80;;;1.60;99.90;;;;;;5053656;28;20057;-49
2023/04/05 00:59:41;;;;;;;7.28;5.63;;;1.60;99.90;;;;;;5053514;28;20372;-51
2023/04/05 01:02:23;;;;;;;10.05;5.43;;;1.60;42.10;;;;;;5053563;28;20028;-51
2023/04/05 01:05:00;;;;;;;8.10;5.53;;;1.60;1.00;;;;;;5053631;28;20020;-52
2023/04/05 01:07:54;;;;;;;14.45;5.93;;;1.60;90.60;;;;;;5053448;28;20037;-55
2023/04/05 01:10:24;;;;;;;7.55;6.03;;;1.60;1.00;;;;;;5053530;28;20028;-51
2023/04/05 01:12:51;;;;;;;8.15;6.35;;;1.50;1.00;;;;;;5053285;28;20051;-53
2023/04/05 01:15:17;;;;;;;10.25;6.60;;;1.50;1.00;;;;;;5052211;28;20021;-54
2023/04/05 01:17:45;;;;;;;16.25;7.32;;;1.50;1.00;;;;;;5053465;28;20096;-51
2023/04/05 01:20:12;;;;;;;9.68;6.75;;;1.50;1.00;;;;;;5053058;28;20017;-53
2023/04/05 01:22:55;;;;;;;11.27;6.47;;;1.50;99.90;;;;;;5053292;28;20099;-53
2023/04/05 01:25:45;;;;;;;6.25;5.65;;;1.50;99.90;;;;;;5053191;28;20059;-52
2023/04/05 01:28:35;;;;;;;7.55;6.05;;;1.50;99.90;;;;;;5053133;28;20063;-51
2023/04/05 01:31:07;;;;;;;9.07;6.82;;;1.50;99.90;;;;;;5051672;28;20107;-47
2023/04/05 01:33:45;;;;;;;5.70;5.05;;;1.40;1.00;;;;;;5051790;28;20029;-54
2023/04/05 01:36:26;;;;;;;7.53;6.53;;;1.40;1.00;;;;;;5052877;28;20025;-53
2023/04/05 01:38:54;;;;;;;9.25;5.93;;;1.30;1.00;;;;;;5052853;28;20373;-51
2023/04/05 01:41:20;;;;;;;12.10;6.70;;;1.30;99.90;;;;;;5052934;28;20047;-49
2023/04/05 01:43:46;;;;;;;9.18;6.25;;;1.30;99.90;;;;;;5052944;28;20032;-52
2023/04/05 01:46:12;;;;;;;10.70;6.38;;;1.30;99.90;;;;;;5052763;28;20545;-52
2023/04/05 01:48:37;;;;;;;12.25;7.38;;;1.20;99.90;;;;;;5052970;28;20021;-51
2023/04/05 01:51:03;;;;;;;8.73;7.47;;;1.10;1.00;;;;;;5052519;28;20036;-55
2023/04/05 01:53:29;;;;;;;8.15;6.57;;;1.00;99.90;;;;;;5052638;28;20013;-50
2023/04/05 01:56:00;;;;;;;11.13;6.78;;;1.10;1.00;;;;;;5052505;28;20048;-52
2023/04/05 01:58:26;;;;;;;17.38;6.45;;;1.00;1.00;;;;;;5052750;28;20159;-51
2023/04/05 02:00:55;;;;;;;9.68;6.68;;;0.90;71.30;;;;;;5052520;28;20033;-50
2023/04/05 02:03:24;;;;;;;10.57;6.50;;;0.90;1.00;;;;;;5051155;28;20025;-55
2023/04/05 02:05:50;;;;;;;10.70;7.05;;;0.80;99.90;;;;;;5052358;28;20090;-55
2023/04/05 02:08:17;;;;;;;8.23;6.43;;;0.80;99.90;;;;;;5052429;28;20048;-51
2023/04/05 02:10:44;;;;;;;10.57;6.45;;;0.70;99.90;;;;;;5051849;28;20383;-48
2023/04/05 02:13:10;;;;;;;14.18;7.28;;;0.70;30.00;;;;;;5052096;28;20048;-52
2023/04/05 02:15:36;;;;;;;9.10;6.78;;;0.60;99.90;;;;;;5052308;28;20029;-50
2023/04/05 02:18:02;;;;;;;11.45;6.97;;;0.70;99.90;;;;;;5052269;28;20115;-53
2023/04/05 02:20:28;;;;;;;13.85;7.05;;;0.60;1.00;;;;;;5052024;28;20107;-50
2023/04/05 02:22:54;;;;;;;8.13;6.63;;;0.60;99.90;;;;;;5052135;28;20040;-51
2023/04/05 02:25:20;;;;;;;13.48;8.05;;;0.60;99.90;;;;;;5052000;28;20021;-49
2023/04/05 02:27:46;;;;;;;7.00;6.13;;;0.50;99.90;;;;;;5052215;28;20029;-54
2023/04/05 02:30:12;;;;;;;7.68;6.00;;;0.50;99.90;;;;;;5051925;28;20025;-53
2023/04/05 02:32:41;;;;;;;13.52;6.13;;;0.50;1.00;;;;;;5052156;28;20021;-50
2023/04/05 02:35:07;;;;;;;12.48;6.68;;;0.40;22.10;;;;;;5051582;28;20403;-52
2023/04/05 02:37:34;;;;;;;9.30;6.45;;;0.30;1.00;;;;;;5051883;28;20162;-51
2023/04/05 02:40:00;;;;;;;8.57;6.53;;;0.30;1.00;;;;;;5051641;28;20029;-50
2023/04/05 02:42:25;;;;;;;12.70;7.18;;;0.30;1.00;;;;;;5051272;28;20047;-53
2023/04/05 02:44:52;;;;;;;12.15;7.05;;;0.20;1.00;;;;;;5051740;28;20047;-57
2023/04/05 02:47:20;;;;;;;10.25;6.55;;;0.20;99.90;;;;;;5051605;28;20488;-50
2023/04/05 02:49:47;;;;;;;7.20;6.50;;;0.10;99.90;;;;;;5051687;28;20074;-50
2023/04/05 02:52:13;;;;;;;14.65;8.02;;;0.10;99.90;;;;;;5051747;28;20020;-52
2023/04/05 02:54:39;;;;;;;7.90;6.47;;;0.00;99.90;;;;;;5051695;28;20029;-52
2023/04/05 02:57:05;;;;;;;7.95;6.70;;;-0.10;1.00;;;;;;5051395;28;20033;-53
2023/04/05 02:59:30;;;;;;;9.35;6.32;;;-0.10;99.90;;;;;;5051359;28;20021;-52
2023/04/05 03:01:56;;;;;;;9.48;7.13;;;-0.10;1.00;;;;;;5051060;28;20033;-51
2023/04/05 03:04:25;;;;;;;8.02;6.75;;;-0.20;17.20;;;;;;5050873;28;20025;-50
2023/04/05 03:06:53;;;;;;;9.73;7.88;;;-0.30;99.90;;;;;;5050865;28;20029;-55
2023/04/05 03:09:20;;;;;;;8.13;6.95;;;-0.30;99.90;;;;;;5051363;28;20045;-51
2023/04/05 03:11:45;;;;;;;11.48;6.57;;;-0.40;99.90;;;;;;5051678;28;20029;-50
2023/04/05 03:14:11;;;;;;;11.60;7.97;;;-0.40;99.90;;;;;;5051185;28;20049;-53
2023/04/05 03:16:38;;;;;;;9.88;7.05;;;-0.40;99.90;;;;;;5051515;28;20025;-52
2023/04/05 03:19:05;;;;;;;11.73;7.57;;;-0.50;99.90;;;;;;5051294;28;20029;-53
2023/04/05 03:21:32;;;;;;;11.40;7.50;;;-0.60;99.90;;;;;;5051482;28;20017;-52
2023/04/05 03:23:59;;;;;;;9.35;6.50;;;-0.60;99.90;;;;;;5052266;28;20062;-51
2023/04/05 03:26:25;;;;;;;8.10;6.75;;;-0.70;99.90;;;;;;5055399;28;20546;-54
2023/04/05 03:28:50;;;;;;;10.95;6.90;;;-0.80;99.90;;;;;;5055504;28;20025;-55
2023/04/05 03:31:16;;;;;;;12.90;8.20;;;-0.90;1.00;;;;;;5055325;28;20021;-54
2023/04/05 03:33:42;;;;;;;19.83;8.98;;;-0.90;1.00;;;;;;5055254;28;20032;-52
2023/04/05 03:36:07;;;;;;;14.70;8.13;;;-0.90;1.00;;;;;;5055133;28;20024;-52
2023/04/05 03:38:34;;;;;;;13.20;7.00;;;-0.90;1.00;;;;;;5055094;28;20029;-53
2023/04/05 03:41:01;;;;;;;15.80;9.25;;;-0.90;1.00;;;;;;5055273;28;20400;-52
2023/04/05 03:43:28;;;;;;;11.45;7.13;;;-0.90;1.00;;;;;;5055119;28;20020;-54
2023/04/05 03:45:54;;;;;;;11.38;7.63;;;-0.90;99.90;;;;;;5053284;28;20025;-50
2023/04/05 03:48:20;;;;;;;15.60;7.53;;;-0.90;99.90;;;;;;5055044;28;20033;-51
2023/04/05 03:50:46;;;;;;;11.68;8.02;;;-1.00;99.90;;;;;;5054984;28;20380;-52
2023/04/05 03:53:12;;;;;;;13.18;7.82;;;-1.00;99.90;;;;;;5054213;28;20033;-53
2023/04/05 03:55:39;;;;;;;14.02;7.78;;;-1.10;99.90;;;;;;5054571;28;20033;-53
2023/04/05 03:58:04;;;;;;;12.00;9.07;;;-1.00;99.90;;;;;;5054071;28;20070;-53
2023/04/05 04:00:30;;;;;;;13.35;8.07;;;-1.10;1.00;;;;;;5054804;28;20033;-50
2023/04/05 04:02:56;;;;;;;17.65;10.50;;;-1.10;99.90;;;;;;5054442;28;20036;-52
2023/04/05 04:05:21;;;;;;;12.95;9.45;;;-1.10;99.90;;;;;;5054400;28;20025;-54
2023/04/05 04:07:47;;;;;;;11.75;8.73;;;-1.10;99.90;;;;;;5054589;28;20159;-53
2023/04/05 04:10:16;;;;;;;11.35;7.97;;;-1.20;1.00;;;;;;5053931;28;20028;-53
2023/04/05 04:12:42;;;;;;;15.00;7.53;;;-1.20;1.00;;;;;;5053861;28;20072;-52
2023/04/05 04:15:08;;;;;;;11.93;7.88;;;-1.20;1.00;;;;;;5053588;28;20044;-50
2023/04/05 04:17:35;;;;;;;13.40;8.20;;;-1.20;1.00;;;;;;5054068;28;20108;-52
2023/04/05 04:20:20;;;;;;;12.48;7.20;;;-1.30;1.00;;;;;;5053074;28;20037;-54
2023/04/05 04:22:47;;;;;;;9.20;7.35;;;-1.20;1.00;;;;;;5053038;28;20364;-52
2023/04/05 04:25:15;;;;;;;12.65;8.50;;;-1.30;1.00;;;;;;5053791;28;20090;-53
2023/04/05 04:27:43;;;;;;;9.60;7.78;;;-1.30;1.00;;;;;;5054036;28;20528;-51
2023/04/05 04:30:13;;;;;;;12.32;8.77;;;-1.30;1.00;;;;;;5053511;28;20047;-53
2023/04/05 04:32:56;;;;;;;11.57;8.48;;;-1.30;1.00;;;;;;5053685;28;20017;-52
2023/04/05 04:35:24;;;;;;;10.15;8.05;;;-1.30;1.00;;;;;;5053209;28;20017;-50
2023/04/05 04:37:53;;;;;;;12.15;8.43;;;-1.20;1.00;;;;;;5054121;28;20025;-53
2023/04/05 04:40:21;;;;;;;14.52;8.27;;;-1.20;1.00;;;;;;5053862;28;20033;-47
2023/04/05 04:42:48;;;;;;;16.88;7.85;;;-1.20;1.00;;;;;;5053940;28;20024;-51
2023/04/05 04:45:16;;;;;;;14.73;8.60;;;-1.10;1.00;;;;;;5053822;28;20031;-50
2023/04/05 04:47:42;;;;;;;12.18;8.20;;;-1.00;1.00;;;;;;5052673;28;20529;-51
2023/04/05 04:50:09;;;;;;;19.63;9.25;;;-1.00;1.00;;;;;;5053811;28;20009;-47
2023/04/05 04:52:35;;;;;;;10.30;8.32;;;-0.90;1.00;;;;;;5053727;28;20568;-52
2023/04/05 04:55:04;;;;;;;12.88;8.60;;;-0.90;1.00;;;;;;5053635;28;20017;-55
2023/04/05 04:57:30;;;;;;;11.70;8.45;;;-0.90;1.00;;;;;;5053848;28;20415;-49
2023/04/05 04:59:55;;;;;;;15.95;8.95;;;-0.80;1.00;;;;;;5053494;28;20036;-51
2023/04/05 05:02:25;;;;;;;13.73;8.45;;;-0.80;1.00;;;;;;5053788;28;20032;-55
2023/04/05 05:04:51;;;;;;;13.23;8.52;;;-0.80;1.00;;;;;;5053505;28;20079;-55
2023/04/05 05:07:17;;;;;;;11.43;7.90;;;-0.80;1.00;;;;;;5053518;28;20364;-50
2023/04/05 05:09:43;;;;;;;10.43;8.15;;;-0.80;1.00;;;;;;5053461;28;20012;-52
2023/04/05 05:12:09;;;;;;;11.70;8.32;;;-0.80;1.00;;;;;;5053187;28;20536;-51
2023/04/05 05:14:35;;;;;;;10.38;8.02;;;-0.80;1.00;;;;;;5052204;28;20067;-50
2023/04/05 05:17:00;;;;;;;11.65;8.45;;;-0.80;1.00;;;;;;5052715;28;20024;-53
2023/04/05 05:19:26;;;;;;;14.55;8.25;;;-0.90;1.00;;;;;;5053201;28;20029;-49
2023/04/05 05:21:52;;;;;;;10.25;8.20;;;-0.90;1.00;;;;;;5053171;28;20113;-52
2023/04/05 05:24:19;;;;;;;9.50;7.63;;;-0.90;1.00;;;;;;5052956;28;20372;-51
2023/04/05 05:26:44;;;;;;;9.20;7.47;;;-0.80;1.00;;;;;;5052978;28;20112;-50
2023/04/05 05:29:10;;;;;;;11.30;8.75;;;-0.80;1.00;;;;;;5052974;28;20551;-52
2023/04/05 05:31:36;;;;;;;11.95;7.90;;;-0.80;1.00;;;;;;5053140;28;20082;-54
2023/04/05 05:34:01;;;;;;;13.82;8.75;;;-0.70;1.00;;;;;;5052978;28;20025;-52
2023/04/05 05:36:27;;;;;;;15.50;8.40;;;-0.70;1.00;;;;;;5052925;28;20021;-53
2023/04/05 05:38:53;;;;;;;15.57;8.48;;;-0.70;1.00;;;;;;5053373;28;20611;-52
2023/04/05 05:41:20;;;;;;;16.90;8.93;;;-0.60;1.00;;;;;;5052691;28;20364;-55
2023/04/05 05:43:46;;;;;;;10.85;7.43;;;-0.60;1.00;;;;;;5052927;28;20029;-49
2023/04/05 05:46:12;;;;;;;20.85;10.95;;;-0.50;1.00;;;;;;5051701;28;20032;-52
2023/04/05 05:48:38;;;;;;;12.20;8.30;;;-0.40;99.90;;;;;;5052908;28;20025;-52
2023/04/05 05:51:09;;;;;;;12.32;8.07;;;-0.40;99.90;;;;;;5052479;28;20032;-55
2023/04/05 05:53:39;;;;;;;12.52;8.07;;;-0.30;99.90;;;;;;5052526;28;20035;-55
2023/04/05 05:56:05;;;;;;;33.97;11.10;;;-0.30;99.90;;;;;;5052409;28;20040;-49
2023/04/05 05:58:31;;;;;;;12.07;7.85;;;-0.20;99.90;;;;;;5052512;28;20072;-52
2023/04/05 06:00:57;;;;;;;12.25;7.72;;;-0.20;99.90;;;;;;5050994;28;20025;-51
2023/04/05 06:03:24;;;;;;;13.48;9.07;;;-0.10;99.90;;;;;;5052389;28;20024;-51
2023/04/05 06:05:54;;;;;;;18.50;8.63;;;0.00;99.90;;;;;;5052064;28;20021;-53
2023/04/05 06:08:20;;;;;;;13.73;8.45;;;0.00;88.50;;;;;;5051986;28;20057;-49
2023/04/05 06:10:47;;;;;;;11.70;9.23;;;0.10;11.50;;;;;;5052136;28;20106;-53
2023/04/05 06:13:13;;;;;;;10.77;7.78;;;0.10;99.90;;;;;;5050374;28;20040;-49
2023/04/05 06:15:38;;;;;;;10.77;7.53;;;0.10;99.90;;;;;;5050837;28;20499;-53
2023/04/05 06:18:04;;;;;;;12.45;8.55;;;0.20;64.00;;;;;;5051976;28;20025;-50
2023/04/05 06:20:30;;;;;;;10.23;7.68;;;0.20;39.60;;;;;;5052092;28;20028;-50
2023/04/05 06:22:55;;;;;;;14.45;8.30;;;0.30;86.00;;;;;;5051833;28;20032;-53
2023/04/05 06:25:21;;;;;;;13.52;7.40;;;0.40;33.70;;;;;;5050870;28;20067;-55
2023/04/05 06:27:47;;;;;;;11.90;6.85;;;0.40;99.90;;;;;;5051917;28;20053;-53
2023/04/05 06:30:13;;;;;;;15.43;7.95;;;0.50;1.00;;;;;;5051626;28;20021;-54
2023/04/05 06:32:38;;;;;;;15.18;8.18;;;0.60;99.90;;;;;;5051714;28;20111;-54
2023/04/05 06:35:05;;;;;;;11.55;7.03;;;0.60;96.40;;;;;;5051601;28;20108;-52
2023/04/05 06:37:30;;;;;;;14.98;7.35;;;0.60;99.90;;;;;;5052054;28;20060;-55
2023/04/05 06:39:58;;;;;;;11.15;7.53;;;0.60;99.90;;;;;;5051603;28;20447;-54
2023/04/05 06:42:24;;;;;;;10.90;8.18;;;0.70;99.90;;;;;;5051602;28;20031;-54
2023/04/05 06:44:49;;;;;;;10.85;7.28;;;0.80;99.90;;;;;;5050323;28;20140;-55
2023/04/05 06:47:15;;;;;;;10.13;7.53;;;0.80;99.90;;;;;;5051352;28;20104;-52
2023/04/05 06:49:41;;;;;;;10.63;7.68;;;0.90;99.90;;;;;;5051631;28;20059;-55
2023/04/05 06:52:07;;;;;;;12.55;7.93;;;0.80;1.00;;;;;;5051476;28;20087;-54
2023/04/05 06:54:33;;;;;;;13.48;10.10;;;0.80;1.00;;;;;;5051509;28;20036;-54
2023/04/05 06:56:59;;;;;;;10.63;8.70;;;0.80;1.00;;;;;;5051117;28;20112;-52
2023/04/05 06:59:26;;;;;;;12.85;8.65;;;0.80;1.00;;;;;;5051797;28;20104;-55
2023/04/05 07:01:52;;;;;;;10.30;7.70;;;0.90;1.00;;;;;;5051363;28;20025;-56
2023/04/05 07:04:17;;;;;;;10.52;7.75;;;0.80;1.00;;;;;;5051545;28;20463;-55
2023/04/05 07:06:43;;;;;;;15.98;6.55;;;0.90;1.00;;;;;;5051446;28;20033;-51
2023/04/05 07:09:08;;;;;;;11.30;7.15;;;1.00;1.00;;;;;;5051347;28;20021;-54
2023/04/05 07:11:35;;;;;;;10.90;9.27;;;1.00;1.00;;;;;;5051325;28;20017;-52
2023/04/05 07:14:01;;;;;;;13.98;7.40;;;1.10;1.00;;;;;;5051133;28;20052;-54
2023/04/05 07:16:27;;;;;;;10.93;7.65;;;1.20;1.00;;;;;;5051279;28;20029;-55
2023/04/05 07:18:55;;;;;;;13.93;7.40;;;1.20;1.00;;;;;;5051168;28;20021;-51
2023/04/05 07:21:22;;;;;;;11.20;7.20;;;1.20;1.00;;;;;;5051261;28;20025;-56
2023/04/05 07:23:47;;;;;;;10.63;6.72;;;1.40;1.00;;;;;;5051270;28;20447;-57
2023/04/05 07:26:13;;;;;;;14.73;7.38;;;1.50;1.00;;;;;;5050984;28;20033;-53
2023/04/05 07:28:39;;;;;;;13.88;6.93;;;1.50;1.00;;;;;;5051370;28;20050;-54
2023/04/05 07:31:06;;;;;;;15.98;6.70;;;1.50;1.00;;;;;;5050970;28;20384;-55
2023/04/05 07:33:32;;;;;;;10.18;7.10;;;1.60;1.00;;;;;;5051315;28;20078;-55
2023/04/05 07:35:58;;;;;;;12.65;7.07;;;1.60;1.00;;;;;;5051091;28;20580;-56
2023/04/05 07:38:26;;;;;;;13.30;5.85;;;1.60;1.00;;;;;;5051190;28;20064;-59
2023/04/05 07:40:51;;;;;;;11.00;6.93;;;1.70;1.00;;;;;;5050845;28;20029;-54
2023/04/05 07:43:18;;;;;;;8.23;5.75;;;1.70;1.00;;;;;;5051124;28;20025;-57
2023/04/05 07:45:44;;;;;;;8.48;5.97;;;1.80;1.00;;;;;;5050764;28;20033;-54
2023/04/05 07:48:10;;;;;;;10.20;5.68;;;1.90;1.00;;;;;;5050591;28;20040;-50
2023/04/05 07:50:38;;;;;;;11.00;5.88;;;1.90;1.00;;;;;;5050533;28;20021;-51
2023/04/05 07:53:04;;;;;;;9.77;5.45;;;1.80;1.00;;;;;;5050454;28;20537;-53
2023/04/05 07:55:30;;;;;;;8.38;6.05;;;1.80;1.00;;;;;;5050459;28;20053;-51
2023/04/05 07:57:57;;;;;;;8.75;6.10;;;1.80;1.00;;;;;;5050465;28;20053;-55
2023/04/05 08:00:23;;;;;;;11.32;5.88;;;1.60;1.00;;;;;;5048928;28;20112;-50
2023/04/05 08:02:48;;;;;;;8.82;5.72;;;1.80;1.00;;;;;;5050113;28;20096;-51
2023/04/05 08:05:14;;;;;;;17.45;8.30;;;1.90;1.00;;;;;;5050063;28;20476;-56
2023/04/05 08:07:40;;;;;;;16.25;10.60;;;1.90;1.00;;;;;;5050773;28;20023;-52
2023/04/05 08:10:06;;;;;;;35.53;17.20;;;2.00;1.00;;;;;;5052899;28;20021;-54
2023/04/05 08:12:33;;;;;;;19.83;13.10;;;2.40;1.00;;;;;;5054318;28;20120;-53
2023/04/05 08:14:59;;;;;;;13.95;7.60;;;2.70;1.00;;;;;;5054396;28;20017;-52
2023/04/05 08:17:28;;;;;;;10.20;5.60;;;2.90;1.00;;;;;;5054471;28;20032;-47
2023/04/05 08:19:54;;;;;;;11.40;6.47;;;2.90;1.00;;;;;;5054496;28;20051;-51
2023/04/05 08:22:20;;;;;;;8.68;6.13;;;3.10;1.00;;;;;;5054345;28;20017;-52
2023/04/05 08:24:46;;;;;;;11.45;5.70;;;3.20;1.00;;;;;;5054276;28;20415;-52
2023/04/05 08:27:12;;;;;;;8.27;5.43;;;3.30;1.00;;;;;;5053903;28;20061;-52
2023/04/05 08:29:37;;;;;;;11.27;6.43;;;3.00;1.00;;;;;;5054229;28;20028;-52
2023/04/05 08:32:03;;;;;;;11.48;5.75;;;3.20;1.00;;;;;;5054229;28;20036;-53
2023/04/05 08:34:29;;;;;;;20.75;12.57;;;3.30;1.00;;;;;;5053152;28;20029;-52
2023/04/05 08:36:58;;;;;;;9.65;6.35;;;3.60;1.00;;;;;;5053936;28;20385;-54
2023/04/05 08:39:24;;;;;;;8.13;6.35;;;3.40;1.00;;;;;;5054171;28;20025;-48
2023/04/05 08:42:00;;;;;;;8.23;6.47;;;3.70;1.00;;;;;;5054032;28;20048;-53
2023/04/05 08:44:30;;;;;;;8.52;6.45;;;4.00;1.00;;;;;;5054076;28;20051;-51
2023/04/05 08:46:57;;;;;;;15.82;6.47;;;4.00;1.00;;;;;;5053632;28;20403;-52
2023/04/05 08:49:22;;;;;;;11.73;8.02;;;4.10;1.00;;;;;;5053878;28;20052;-51
2023/04/05 08:51:48;;;;;;;8.93;5.82;;;3.90;1.00;;;;;;5053873;28;20446;-51
2023/04/05 08:54:14;;;;;;;6.18;5.25;;;4.00;1.00;;;;;;5053555;28;20029;-52
2023/04/05 08:56:41;;;;;;;14.57;6.20;;;4.30;1.00;;;;;;5053839;28;20357;-51
2023/04/05 08:59:09;;;;;;;10.10;6.25;;;4.40;1.00;;;;;;5053705;28;20021;-52
2023/04/05 09:01:43;;;;;;;6.65;4.57;;;4.40;1.00;;;;;;5053695;28;20139;-50
2023/04/05 09:04:15;;;;;;;7.57;5.22;;;4.60;1.00;;;;;;5053579;28;20033;-51
2023/04/05 09:06:40;;;;;;;11.55;7.07;;;4.70;1.00;;;;;;5052138;28;20021;-49
2023/04/05 09:09:07;;;;;;;7.60;5.82;;;4.60;1.00;;;;;;5053529;28;20029;-53
2023/04/05 09:11:34;;;;;;;10.52;5.05;;;4.80;1.00;;;;;;5053509;28;20032;-54
2023/04/05 09:14:06;;;;;;;8.73;6.15;;;4.80;1.00;;;;;;5051921;28;20415;-51
2023/04/05 09:16:37;;;;;;;10.30;4.97;;;5.00;1.00;;;;;;5053576;28;20369;-53
2023/04/05 09:19:02;;;;;;;15.35;8.60;;;4.90;1.00;;;;;;5053119;28;20029;-52
2023/04/05 09:21:28;;;;;;;6.68;5.05;;;4.70;1.00;;;;;;5051649;28;20032;-53
2023/04/05 09:23:54;;;;;;;7.10;4.40;;;4.80;1.00;;;;;;5053236;28;20420;-49
2023/04/05 09:26:22;;;;;;;6.53;5.20;;;4.90;1.00;;;;;;5053269;28;20017;-51
2023/04/05 09:28:48;;;;;;;7.68;5.70;;;5.00;1.00;;;;;;5053335;28;20044;-54
2023/04/05 09:31:31;;;;;;;7.57;5.05;;;5.10;1.00;;;;;;5053042;28;20025;-53
2023/04/05 09:33:59;;;;;;;13.00;5.93;;;5.50;1.00;;;;;;5045355;28;20025;-50
2023/04/05 09:36:25;;;;;;;12.25;5.90;;;5.60;1.00;;;;;;5033282;28;20264;-54
2023/04/05 09:38:50;;;;;;;7.28;4.97;;;5.70;1.00;;;;;;5052305;28;20039;-54
2023/04/05 09:41:16;;;;;;;9.88;6.00;;;6.00;1.00;;;;;;5052835;28;20029;-53
2023/04/05 09:43:42;;;;;;;9.30;6.13;;;5.60;1.00;;;;;;5052295;28;20107;-51
2023/04/05 09:46:31;;;;;;;8.93;5.70;;;5.80;1.00;;;;;;5052006;28;20060;-50
2023/04/05 09:48:57;;;;;;;9.65;5.38;;;5.70;1.00;;;;;;5051340;28;20025;-51
2023/04/05 09:51:22;;;;;;;8.07;5.28;;;6.00;1.00;;;;;;5052680;28;20013;-54
2023/04/05 09:54:02;;;;;;;6.80;4.88;;;6.00;1.00;;;;;;5052734;28;20499;-50
2023/04/05 09:56:31;;;;;;;6.65;4.93;;;6.00;1.00;;;;;;5052685;28;20029;-52
2023/04/05 09:59:03;;;;;;;8.23;5.47;;;6.40;1.00;;;;;;5052298;28;20042;-54
2023/04/05 10:01:32;;;;;;;16.52;5.13;;;6.90;1.00;;;;;;5052332;28;20094;-56
2023/04/05 10:04:01;;;;;;;6.57;4.93;;;6.80;1.00;;;;;;5052340;28;20090;-53
2023/04/05 10:06:41;;;;;;;7.60;4.90;;;7.00;1.00;;;;;;5051949;28;20468;-51
2023/04/05 10:09:08;;;;;;;10.13;5.30;;;7.50;1.00;;;;;;5052033;28;20017;-51
2023/04/05 10:11:35;;;;;;;9.82;5.93;;;7.70;1.00;;;;;;5052188;28;20022;-56
2023/04/05 10:14:05;;;;;;;10.90;5.82;;;8.00;1.00;;;;;;5052079;28;20049;-55
2023/04/05 10:17:07;;;;;;;6.65;4.25;;;8.00;1.00;;;;;;5050883;28;20502;-52
2023/04/05 10:20:16;;;;;;;8.95;5.03;;;7.90;1.00;;;;;;5051261;28;20451;-51
2023/04/05 10:22:51;;;;;;;11.10;5.30;;;8.20;1.00;;;;;;5049935;28;20031;-53
2023/04/05 10:25:46;;;;;;;7.45;5.20;;;8.30;1.00;;;;;;5049392;28;20025;-55
2023/04/05 10:31:37;;;;;;;8.82;5.60;;;7.80;1.00;;;;;;5050539;28;20099;-56
2023/04/05 10:34:05;;;;;;;10.40;5.25;;;7.20;1.00;;;;;;5051454;28;20028;-52
2023/04/05 10:36:54;;;;;;;11.90;5.70;;;6.60;1.00;;;;;;5051732;28;20057;-54
2023/04/05 10:39:45;;;;;;;8.65;4.80;;;6.90;1.00;;;;;;5051701;28;20071;-50
2023/04/05 10:42:19;;;;;;;5.65;4.47;;;6.80;1.00;;;;;;5051530;28;20137;-54
2023/04/05 10:44:52;;;;;;;44.28;29.15;;;6.90;1.00;;;;;;5050355;28;20539;-55
2023/04/05 10:47:21;;;;;;;12.93;5.75;;;7.30;1.00;;;;;;5051577;28;20102;-56
2023/04/05 10:49:52;;;;;;;10.98;5.63;;;7.30;1.00;;;;;;5051786;28;20025;-53
2023/04/05 10:52:18;;;;;;;13.95;4.90;;;7.20;1.00;;;;;;5050486;28;20070;-54
2023/04/05 10:54:44;;;;;;;6.20;4.72;;;7.50;1.00;;;;;;5051724;28;20033;-55
2023/04/05 10:57:10;;;;;;;6.75;5.10;;;7.80;1.00;;;;;;5051355;28;20025;-56
2023/04/05 10:59:41;;;;;;;10.38;4.68;;;8.20;1.00;;;;;;5051744;28;20464;-54
2023/04/05 11:02:08;;;;;;;10.77;6.07;;;9.10;1.00;;;;;;5051472;28;20432;-55
2023/04/05 11:04:34;;;;;;;7.45;5.68;;;9.30;1.00;;;;;;5051792;28;20056;-55
2023/04/05 11:07:19;;;;;;;7.25;4.70;;;9.50;1.00;;;;;;5051299;28;20048;-57
2023/04/05 11:09:59;;;;;;;10.50;5.22;;;8.90;1.00;;;;;;5051706;28;20528;-53
2023/04/05 11:12:51;;;;;;;7.00;4.60;;;8.50;1.00;;;;;;5051503;28;20033;-56
2023/04/05 11:15:31;;;;;;;8.00;4.90;;;8.30;1.00;;;;;;5051486;28;20099;-57
2023/04/05 11:18:15;;;;;;;12.43;4.65;;;9.30;1.00;;;;;;5051087;28;20045;-56
2023/04/05 11:20:42;;;;;;;8.23;4.15;;;10.60;1.00;;;;;;5051525;28;20103;-54
2023/04/05 11:23:12;;;;;;;7.90;4.22;;;11.40;1.00;;;;;;5051373;28;20369;-56
2023/04/05 11:25:39;;;;;;;8.98;4.28;;;12.50;1.00;;;;;;5051328;28;20021;-55
2023/04/05 11:28:05;;;;;;;9.07;3.92;;;13.60;1.00;;;;;;5051257;28;20559;-54
2023/04/05 11:30:57;;;;;;;4.40;3.42;;;14.60;1.00;;;;;;5051596;28;20150;-57
2023/04/05 11:33:41;;;;;;;8.55;4.47;;;15.30;4.20;;;;;;5051646;28;20075;-55
2023/04/05 11:36:08;;;;;;;8.40;4.03;;;14.90;1.00;;;;;;5041106;28;20118;-55
2023/04/05 11:38:34;;;;;;;13.20;5.55;;;15.00;6.00;;;;;;5043915;28;20528;-54
2023/04/05 11:41:10;;;;;;;7.25;4.45;;;14.70;10.80;;;;;;5050996;28;20025;-56
2023/04/05 11:43:37;;;;;;;6.53;3.83;;;15.10;1.00;;;;;;5040854;28;20022;-58
2023/04/05 11:46:03;;;;;;;5.68;3.80;;;15.80;3.10;;;;;;5034958;28;20407;-54
2023/04/05 11:48:29;;;;;;;4.72;3.75;;;15.70;11.80;;;;;;5035350;28;20028;-55
2023/04/05 11:50:56;;;;;;;4.68;3.10;;;16.70;13.80;;;;;;5039020;28;20017;-57
2023/04/05 11:53:22;;;;;;;9.93;3.75;;;16.60;15.20;;;;;;5044668;28;20033;-58
2023/04/05 11:55:50;;;;;;;4.43;3.60;;;15.90;15.40;;;;;;5054967;28;20021;-57
2023/04/05 11:58:24;;;;;;;6.53;4.10;;;16.40;24.40;;;;;;5053540;28;20509;-57
2023/04/05 12:04:13;;;;;;;4.05;3.00;;;15.70;26.10;;;;;;5054295;28;20075;-58
2023/04/05 12:06:39;;;;;;;10.38;3.63;;;17.50;23.20;;;;;;5054691;28;20036;-58
2023/04/05 12:09:06;;;;;;;7.97;3.65;;;17.10;25.90;;;;;;5054654;28;20025;-56
2023/04/05 12:11:32;;;;;;;7.97;4.43;;;17.40;25.20;;;;;;5054303;28;20375;-57
2023/04/05 12:14:00;;;;;;;6.20;3.60;;;17.30;24.90;;;;;;5054033;28;20045;-58
2023/04/05 12:16:26;;;;;;;5.75;3.50;;;16.60;27.40;;;;;;5054202;28;20036;-58
2023/04/05 12:18:56;;;;;;;7.60;3.90;;;16.50;27.40;;;;;;5054396;28;20029;-58
2023/04/05 12:21:22;;;;;;;6.35;3.35;;;16.00;26.00;;;;;;5053121;28;20340;-56
2023/04/05 12:23:52;;;;;;;11.68;3.88;;;16.10;27.60;;;;;;5054330;28;20025;-58
2023/04/05 12:26:18;;;;;;;5.80;3.80;;;15.60;28.80;;;;;;5054310;28;20424;-57
2023/04/05 12:28:57;;;;;;;8.98;4.38;;;15.40;29.70;;;;;;5054251;28;20017;-58
2023/04/05 12:31:41;;;;;;;5.72;3.45;;;15.50;30.70;;;;;;5054045;28;20048;-57
2023/04/05 12:34:07;;;;;;;12.30;3.67;;;15.70;29.80;;;;;;5052423;28;20029;-56
2023/04/05 12:36:33;;;;;;;7.13;3.67;;;15.90;29.30;;;;;;5053821;28;20017;-58
2023/04/05 12:39:04;;;;;;;8.90;4.05;;;16.10;29.40;;;;;;5053320;28;20040;-57
2023/04/05 12:41:31;;;;;;;10.15;4.13;;;16.10;28.80;;;;;;5053656;28;20087;-57
2023/04/05 12:44:00;;;;;;;5.10;3.20;;;17.00;28.70;;;;;;5053481;28;20086;-57
2023/04/05 12:46:43;;;;;;;5.30;4.13;;;16.80;29.30;;;;;;5053625;28;20028;-58
2023/04/05 12:49:11;;;;;;;6.90;3.70;;;16.80;28.00;;;;;;5053622;28;20518;-58
2023/04/05 12:51:42;;;;;;;6.43;4.00;;;16.50;28.20;;;;;;5053745;28;20032;-54
2023/04/05 12:54:10;;;;;;;6.55;2.90;;;17.20;27.70;;;;;;5053292;28;20514;-58
2023/04/05 12:56:37;;;;;;;4.53;3.25;;;18.20;27.70;;;;;;5053041;28;20025;-58
2023/04/05 12:59:06;;;;;;;5.55;3.70;;;18.90;28.30;;;;;;5053329;28;20032;-56
2023/04/05 13:01:32;;;;;;;4.00;3.00;;;18.40;27.10;;;;;;5053739;28;20436;-57
2023/04/05 13:04:00;;;;;;;9.68;3.05;;;18.50;26.70;;;;;;5053732;28;20053;-59
2023/04/05 13:06:26;;;;;;;6.72;4.18;;;17.70;27.00;;;;;;5053094;28;20033;-58